Time;durP1;ratioP1;P1;durP2;ratioP2;P2;SDS_P1;SDS_P2;PMS_P1;PMS_P2;Temp;Humidity;BMP_temperature;BMP_pressure;BME280_temperature;BME280_humidity;BME280_pressure;Samples;Min_cycle;Max_cycle;Signal;HPM_P1;HPM_P2
2022/10/09 00:00:18;;;;;;;0.00;0.00;;;;;;;4.96;100.00;102789.63;10574607;28;20063;-76
2022/10/09 00:05:22;;;;;;;1.45;1.27;;;;;;;4.94;100.00;102786.97;10565898;28;20079;-75
2022/10/09 00:10:24;;;;;;;0.43;0.25;;;;;;;4.69;100.00;102790.09;10550900;28;20048;-76
2022/10/09 00:15:26;;;;;;;1.33;0.57;;;;;;;4.59;100.00;102793.56;10577549;28;20520;-76
2022/10/09 00:20:28;;;;;;;0.63;0.30;;;;;;;4.70;100.00;102797.00;10564597;28;20775;-75
2022/10/09 00:25:30;;;;;;;0.32;0.20;;;;;;;4.73;100.00;102787.00;10569500;28;20044;-76
2022/10/09 00:30:32;;;;;;;0.70;0.35;;;;;;;4.72;100.00;102800.56;10569108;28;20072;-76
2022/10/09 00:35:37;;;;;;;0.10;0.10;;;;;;;4.90;100.00;102801.16;10582403;28;20062;-76
2022/10/09 00:40:39;;;;;;;0.38;0.20;;;;;;;4.96;100.00;102810.06;10582436;28;20048;-76
2022/10/09 00:45:47;;;;;;;0.82;0.40;;;;;;;4.73;100.00;102792.13;10555793;28;20048;-75
2022/10/09 00:50:53;;;;;;;0.47;0.32;;;;;;;4.44;100.00;102797.44;10568847;28;20101;-75
2022/10/09 00:55:55;;;;;;;0.10;0.10;;;;;;;4.47;100.00;102791.69;10567393;28;20512;-76
2022/10/09 01:00:56;;;;;;;0.05;0.05;;;;;;;4.34;100.00;102805.09;10574155;28;20551;-75
2022/10/09 01:06:26;;;;;;;0.20;0.10;;;;;;;4.20;100.00;102797.22;10576026;28;20043;-76
2022/10/09 01:11:41;;;;;;;0.10;0.10;;;;;;;4.23;100.00;102797.47;10552264;28;20142;-76
2022/10/09 01:17:08;;;;;;;0.43;0.30;;;;;;;4.19;100.00;102789.44;10567854;28;20039;-77
2022/10/09 01:22:25;;;;;;;0.10;0.10;;;;;;;4.34;100.00;102803.47;10550954;28;20047;-76
2022/10/09 01:27:28;;;;;;;0.35;0.35;;;;;;;4.33;100.00;102803.31;10580958;28;20134;-76
2022/10/09 01:32:33;;;;;;;0.00;0.00;;;;;;;4.35;100.00;102797.59;10578911;28;20126;-77
2022/10/09 01:37:37;;;;;;;0.20;0.15;;;;;;;4.11;100.00;102791.34;10563044;28;20047;-76
2022/10/09 01:42:39;;;;;;;0.10;0.10;;;;;;;4.07;100.00;102785.09;10581361;28;20451;-76
2022/10/09 01:47:41;;;;;;;0.35;0.22;;;;;;;4.18;100.00;102792.75;10585180;28;20079;-76
2022/10/09 01:52:48;;;;;;;1.08;0.65;;;;;;;3.99;100.00;102783.56;10575450;28;20495;-76
2022/10/09 01:58:09;;;;;;;0.17;0.13;;;;;;;4.41;100.00;102789.50;10586633;28;20163;-76
2022/10/09 02:03:14;;;;;;;0.40;0.30;;;;;;;4.19;100.00;102792.00;10586710;28;20052;-76
2022/10/09 02:08:19;;;;;;;1.20;1.02;;;;;;;3.97;100.00;102777.47;10571131;28;20051;-76
2022/10/09 02:13:22;;;;;;;0.03;0.03;;;;;;;4.06;100.00;102778.19;10571698;28;20047;-75
2022/10/09 02:18:44;;;;;;;0.10;0.10;;;;;;;4.41;100.00;102775.13;10589195;28;20039;-76
2022/10/09 02:23:47;;;;;;;0.13;0.13;;;;;;;4.13;100.00;102785.59;10588798;28;20135;-76
2022/10/09 02:28:50;;;;;;;0.10;0.10;;;;;;;3.96;100.00;102783.31;10528737;28;20068;-76
2022/10/09 02:33:56;;;;;;;0.10;0.10;;;;;;;4.21;100.00;102772.56;10546340;28;20043;-76
2022/10/09 02:38:58;;;;;;;0.00;0.00;;;;;;;3.99;100.00;102773.34;10559480;28;20418;-77
2022/10/09 02:44:01;;;;;;;1.60;0.43;;;;;;;4.04;100.00;102777.22;10588282;28;20050;-76
2022/10/09 02:49:03;;;;;;;0.00;0.00;;;;;;;4.04;100.00;102777.22;10570125;28;20071;-76
2022/10/09 02:54:05;;;;;;;0.20;0.20;;;;;;;3.86;100.00;102768.00;10587602;28;20035;-77
2022/10/09 02:59:16;;;;;;;0.10;0.10;;;;;;;3.77;100.00;102758.81;10551679;28;20043;-76
2022/10/09 03:04:17;;;;;;;0.10;0.10;;;;;;;3.74;100.00;102767.88;10544474;28;20551;-76
2022/10/09 03:09:19;;;;;;;0.10;0.10;;;;;;;3.71;100.00;102762.53;10547988;28;20071;-75
2022/10/09 03:14:20;;;;;;;0.60;0.32;;;;;;;3.84;100.00;102759.34;10586721;28;20082;-75
2022/10/09 03:19:22;;;;;;;0.03;0.03;;;;;;;3.79;100.00;102762.41;10579731;28;20052;-74
2022/10/09 03:24:23;;;;;;;0.00;0.00;;;;;;;3.73;100.00;102761.00;10571669;28;20032;-75
2022/10/09 03:29:25;;;;;;;1.20;0.65;;;;;;;3.67;100.00;102756.28;10550891;28;20072;-76
2022/10/09 03:34:26;;;;;;;0.10;0.10;;;;;;;3.71;100.00;102762.53;10585507;28;20039;-75
2022/10/09 03:39:28;;;;;;;0.00;0.00;;;;;;;3.81;100.00;102759.97;10567370;28;20075;-75
2022/10/09 03:44:29;;;;;;;0.28;0.20;;;;;;;3.80;100.00;102751.44;10585287;28;20122;-75
2022/10/09 03:49:31;;;;;;;2.13;0.40;;;;;;;3.63;100.00;102750.03;10569182;28;20043;-75
2022/10/09 03:54:38;;;;;;;0.00;0.00;;;;;;;3.82;100.00;102756.66;10566111;28;20040;-74
2022/10/09 03:59:39;;;;;;;0.60;0.52;;;;;;;3.71;100.00;102760.88;10584495;28;20409;-75
2022/10/09 04:04:41;;;;;;;0.50;0.40;;;;;;;3.86;100.00;102768.94;10584242;28;20039;-78
2022/10/09 04:09:42;;;;;;;1.50;0.80;;;;;;;3.79;100.00;102767.50;10554576;28;20147;-75
2022/10/09 04:14:46;;;;;;;0.20;0.20;;;;;;;3.89;100.00;102768.28;10579136;28;20063;-75
2022/10/09 04:19:48;;;;;;;0.10;0.08;;;;;;;4.13;100.00;102775.38;10583119;28;20045;-75
2022/10/09 04:24:49;;;;;;;1.95;0.47;;;;;;;4.02;100.00;102771.06;10568974;28;20043;-76
2022/10/09 04:29:51;;;;;;;0.10;0.10;;;;;;;3.85;100.00;102771.31;10544879;28;20071;-75
2022/10/09 04:34:52;;;;;;;0.10;0.10;;;;;;;4.08;100.00;102775.78;10582602;28;20078;-75
2022/10/09 04:39:54;;;;;;;0.20;0.15;;;;;;;3.89;100.00;102769.16;10581912;28;20043;-77
2022/10/09 04:44:55;;;;;;;0.65;0.22;;;;;;;3.87;100.00;102764.69;10538987;28;20135;-75
2022/10/09 04:50:04;;;;;;;0.10;0.10;;;;;;;3.90;100.00;102765.84;10581512;28;20074;-75
2022/10/09 04:55:06;;;;;;;0.00;0.00;;;;;;;3.75;100.00;102760.38;10546444;28;20048;-78
2022/10/09 05:00:55;;;;;;;0.63;0.63;;;;;;;3.99;100.00;102770.81;10582227;28;20044;-75
2022/10/09 05:06:01;;;;;;;0.22;0.20;;;;;;;4.01;100.00;102774.38;10546068;28;20047;-76
2022/10/09 05:11:24;;;;;;;0.43;0.32;;;;;;;3.94;100.00;102767.00;10562931;28;20082;-75
2022/10/09 05:16:28;;;;;;;0.43;0.20;;;;;;;4.03;100.00;102764.31;10563162;28;20088;-76
2022/10/09 05:21:30;;;;;;;0.20;0.20;;;;;;;4.29;100.00;102762.25;10566294;28;20044;-75
2022/10/09 05:26:32;;;;;;;0.20;0.20;;;;;;;4.38;100.00;102751.88;10548239;28;20048;-75
2022/10/09 05:31:36;;;;;;;0.75;0.70;;;;;;;4.41;100.00;102764.91;10570415;28;20495;-75
2022/10/09 05:36:41;;;;;;;0.70;0.25;;;;;;;4.40;100.00;102759.66;10538317;28;20050;-76
2022/10/09 05:41:45;;;;;;;0.52;0.52;;;;;;;4.38;100.00;102762.09;10554509;28;20121;-75
2022/10/09 05:46:49;;;;;;;0.45;0.30;;;;;;;4.42;100.00;102759.03;10560950;28;20482;-75
2022/10/09 05:52:02;;;;;;;0.73;0.63;;;;;;;3.95;100.00;102756.03;10569023;28;20038;-76
2022/10/09 05:57:14;;;;;;;0.10;0.10;;;;;;;3.98;100.00;102758.84;10555046;28;20070;-75
2022/10/09 06:02:15;;;;;;;0.52;0.25;;;;;;;4.01;100.00;102761.63;10565785;28;20054;-75
2022/10/09 06:07:17;;;;;;;1.10;0.50;;;;;;;4.01;100.00;102764.19;10566400;28;20058;-75
2022/10/09 06:12:21;;;;;;;0.57;0.32;;;;;;;4.04;100.00;102756.81;10561899;28;20050;-75
2022/10/09 06:17:23;;;;;;;0.17;0.10;;;;;;;4.06;100.00;102752.69;10562659;28;20485;-75
2022/10/09 06:22:27;;;;;;;0.85;0.40;;;;;;;4.41;100.00;102752.16;10556883;28;20126;-75
2022/10/09 06:27:54;;;;;;;4.13;0.70;;;;;;;5.28;100.00;102769.16;10568033;28;20205;-76
2022/10/09 06:32:57;;;;;;;0.50;0.40;;;;;;;5.34;100.00;102769.63;10593006;28;20036;-75
2022/10/09 06:38:05;;;;;;;0.63;0.30;;;;;;;5.77;100.00;102766.03;10578989;28;20487;-75
2022/10/09 06:43:09;;;;;;;1.75;0.70;;;;;;;6.15;100.00;102765.44;10578181;28;20402;-75
2022/10/09 06:48:16;;;;;;;0.75;0.52;;;;;;;6.35;100.00;102775.50;10587453;27;20036;-76
2022/10/09 06:53:24;;;;;;;0.60;0.57;;;;;;;6.90;100.00;102767.44;10555085;28;20040;-76
2022/10/09 06:58:30;;;;;;;0.60;0.57;;;;;;;7.33;100.00;102748.16;10539865;28;20045;-76
2022/10/09 07:03:32;;;;;;;0.20;0.20;;;;;;;7.50;100.00;102745.06;10552051;28;20043;-75
2022/10/09 07:08:35;;;;;;;0.77;0.60;;;;;;;7.68;100.00;102722.31;10586322;28;20171;-76
2022/10/09 07:13:37;;;;;;;0.93;0.60;;;;;;;8.23;100.00;102704.53;10571633;28;20067;-76
2022/10/09 07:18:41;;;;;;;2.25;2.05;;;;;;;8.32;100.00;102693.06;10586317;28;20035;-75
2022/10/09 07:23:50;;;;;;;0.63;0.57;;;;;;;8.79;100.00;102682.38;10567561;28;20040;-76
2022/10/09 07:28:53;;;;;;;1.25;0.70;;;;;;;9.15;100.00;102657.13;10571552;28;20105;-75
2022/10/09 07:33:57;;;;;;;1.10;0.65;;;;;;;9.31;100.00;102627.16;10570519;28;20071;-75
2022/10/09 07:38:59;;;;;;;1.05;0.63;;;;;;;9.31;100.00;102606.59;10574794;28;20233;-75
2022/10/09 07:44:04;;;;;;;0.50;0.47;;;;;;;9.90;100.00;102602.19;10579377;28;20046;-75
2022/10/09 07:49:05;;;;;;;8.77;0.77;;;;;;;10.14;100.00;102584.63;10566367;28;20390;-76
2022/10/09 07:54:11;;;;;;;0.45;0.45;;;;;;;10.67;100.00;102541.97;10578593;28;20153;-76
2022/10/09 07:59:45;;;;;;;1.98;0.80;;;;;;;10.60;100.00;102534.75;10544220;28;20044;-75
2022/10/09 08:04:47;;;;;;;3.05;0.73;;;;;;;11.16;100.00;102524.63;10603945;22;20077;-75
2022/10/09 08:10:18;;;;;;;1.05;0.65;;;;;;;11.23;100.00;102518.97;10608244;27;20047;-76
2022/10/09 08:15:22;;;;;;;3.55;2.15;;;;;;;11.46;100.00;102514.03;10580041;27;20106;-75
2022/10/09 08:20:58;;;;;;;0.63;0.45;;;;;;;12.02;100.00;102502.94;10607259;27;20050;-76
2022/10/09 08:26:04;;;;;;;;;;;;;;;12.12;100.00;102503.34;10568323;27;20375;-75
2022/10/09 08:31:42;;;;;;;2.45;1.33;;;;;;;13.13;100.00;102493.03;10601861;27;19970;-76
2022/10/09 08:36:50;;;;;;;8.25;1.92;;;;;;;12.74;100.00;102483.63;10574806;27;20115;-75
2022/10/09 08:41:57;;;;;;;0.77;0.77;;;;;;;13.02;100.00;102484.81;10622212;27;20039;-75
2022/10/09 08:47:33;;;;;;;2.00;1.33;;;;;;;13.44;100.00;102471.00;10579028;27;20074;-75
2022/10/09 08:53:02;;;;;;;0.85;0.73;;;;;;;13.67;100.00;102455.44;10601655;27;20466;-76
2022/10/09 08:58:24;;;;;;;0.65;0.65;;;;;;;14.48;100.00;102448.84;10609189;27;20074;-76
2022/10/09 09:04:19;;;;;;;1.30;0.98;;;;;;;14.18;100.00;102440.06;10606778;27;20047;-75
2022/10/09 09:09:58;;;;;;;1.33;0.95;;;;;;;14.28;100.00;102433.50;10599417;27;20073;-75
2022/10/09 09:15:27;;;;;;;1.15;1.08;;;;;;;14.33;100.00;102421.56;10527828;27;20433;-75
2022/10/09 09:27:48;;;;;;;0.77;0.77;;;;;;;14.79;100.00;102419.66;10581197;28;20114;-75
2022/10/09 09:33:10;;;;;;;2.83;1.00;;;;;;;15.06;100.00;102408.41;10596504;27;20561;-76
2022/10/09 09:38:36;;;;;;;0.47;0.38;;;;;;;15.17;100.00;102399.22;10605286;28;20051;-76
2022/10/09 09:43:58;;;;;;;0.65;0.32;;;;;;;16.04;100.00;102393.97;10578571;28;20130;-76
2022/10/09 09:49:01;;;;;;;1.60;1.48;;;;;;;15.64;100.00;102382.44;10580403;28;20036;-76
2022/10/09 09:54:28;;;;;;;6.63;1.25;;;;;;;15.40;100.00;102373.09;10616081;28;20035;-77
2022/10/09 09:59:42;;;;;;;5.17;3.30;;;;;;;16.00;100.00;102367.03;10629862;28;20047;-76
2022/10/09 10:05:15;;;;;;;1.30;0.77;;;;;;;16.30;100.00;102359.97;10598714;28;20050;-75
2022/10/09 10:10:25;;;;;;;0.50;0.30;;;;;;;16.15;100.00;102355.25;10588101;27;20083;-76
2022/10/09 10:15:36;;;;;;;0.85;0.40;;;;;;;16.38;100.00;102340.25;10612842;27;20420;-76
2022/10/09 10:20:47;;;;;;;0.40;0.38;;;;;;;15.74;100.00;102348.09;10610616;27;20067;-76
2022/10/09 10:25:54;;;;;;;2.38;1.48;;;;;;;16.05;100.00;102337.66;10616521;27;20043;-77
2022/10/09 10:31:11;;;;;;;0.47;0.40;;;;;;;16.89;100.00;102324.94;10613507;27;20047;-75
2022/10/09 10:36:14;;;;;;;0.63;0.40;;;;;;;17.05;100.00;102314.06;10612448;27;20134;-76
2022/10/09 10:41:35;;;;;;;0.52;0.47;;;;;;;16.49;100.00;102325.75;10629969;27;20042;-75
2022/10/09 10:46:47;;;;;;;0.65;0.50;;;;;;;16.76;100.00;102309.06;10630672;27;20074;-77
2022/10/09 10:52:04;;;;;;;1.55;0.52;;;;;;;16.69;100.00;102301.94;10615989;27;20092;-76
2022/10/09 10:57:56;;;;;;;0.38;0.15;;;;;;;17.56;100.00;102288.16;10631105;27;20466;-76
2022/10/09 11:03:15;;;;;;;2.03;0.70;;;;;;;17.72;100.00;102278.91;10635235;27;20074;-75
2022/10/09 11:08:35;;;;;;;0.40;0.20;;;;;;;17.47;100.00;102275.84;10569478;28;20059;-76
2022/10/09 11:13:46;;;;;;;0.50;0.30;;;;;;;17.08;100.00;102267.25;10587123;28;20388;-76
2022/10/09 11:19:00;;;;;;;0.60;0.60;;;;;;;17.33;100.00;102257.31;10599349;27;20129;-75
2022/10/09 11:24:40;;;;;;;1.23;1.13;;;;;;;17.22;100.00;102257.09;10618417;27;20045;-76
2022/10/09 11:29:41;;;;;;;0.07;0.07;;;;;;;16.95;100.00;102240.09;10595348;27;20055;-76
2022/10/09 11:35:04;;;;;;;0.20;0.20;;;;;;;17.65;100.00;102238.81;10610302;27;20145;-76
2022/10/09 11:40:31;;;;;;;0.32;0.22;;;;;;;17.44;100.00;102216.72;10628633;27;20092;-75
2022/10/09 11:45:47;;;;;;;0.77;0.40;;;;;;;17.39;97.82;102218.34;10628899;27;20058;-76
2022/10/09 11:51:16;;;;;;;0.10;0.10;;;;;;;17.33;100.00;102210.44;10610095;27;20512;-76
2022/10/09 11:56:29;;;;;;;0.10;0.10;;;;;;;17.67;99.78;102205.84;10611694;27;20036;-75
2022/10/09 12:01:37;;;;;;;1.77;0.85;;;;;;;17.63;99.97;102191.00;10608989;27;20067;-77
2022/10/09 12:06:54;;;;;;;0.47;0.40;;;;;;;17.63;94.67;102184.91;10627778;27;20040;-75
2022/10/09 12:12:08;;;;;;;0.47;0.35;;;;;;;17.31;94.79;102173.09;10609208;27;20142;-76
2022/10/09 12:17:21;;;;;;;4.88;0.90;;;;;;;17.70;96.44;102158.09;10627173;27;20050;-76
2022/10/09 12:22:30;;;;;;;0.10;0.10;;;;;;;17.35;93.55;102154.03;10597144;27;20043;-77
2022/10/09 12:27:36;;;;;;;0.00;0.00;;;;;;;17.48;95.65;102139.50;10585456;27;20482;-76
2022/10/09 12:32:43;;;;;;;0.20;0.10;;;;;;;17.50;98.58;102129.97;10610872;27;20040;-76
2022/10/09 12:37:45;;;;;;;2.65;0.60;;;;;;;17.40;93.42;102122.88;10565905;28;20082;-77
2022/10/09 12:42:46;;;;;;;0.20;0.10;;;;;;;17.85;93.01;102102.72;10565845;28;20116;-76
2022/10/09 12:47:50;;;;;;;0.05;0.05;;;;;;;17.32;94.09;102101.88;10599408;27;20043;-76
2022/10/09 12:53:00;;;;;;;1.05;0.95;;;;;;;17.16;98.83;102089.47;10607349;27;20474;-75
2022/10/09 12:58:06;;;;;;;0.00;0.00;;;;;;;16.89;91.92;102085.47;10625625;27;20084;-76
2022/10/09 13:03:40;;;;;;;0.00;0.00;;;;;;;17.07;88.84;102065.00;10606857;27;20573;-77
2022/10/09 13:08:43;;;;;;;0.10;0.10;;;;;;;17.21;85.42;102066.97;10624731;27;20043;-78
2022/10/09 13:13:52;;;;;;;0.00;0.00;;;;;;;17.28;86.72;102053.19;10624272;27;20074;-77
2022/10/09 13:19:03;;;;;;;0.10;0.10;;;;;;;17.13;89.21;102049.50;10563330;27;20047;-77
2022/10/09 13:24:10;;;;;;;0.30;0.25;;;;;;;16.66;88.42;102046.88;10624800;27;20047;-76
2022/10/09 13:29:13;;;;;;;0.20;0.10;;;;;;;16.98;86.70;102032.75;10606541;27;20078;-76
2022/10/09 13:34:15;;;;;;;0.20;0.17;;;;;;;16.79;90.14;102020.22;10606061;27;20050;-77
2022/10/09 13:39:16;;;;;;;0.15;0.15;;;;;;;16.91;88.69;102010.91;10625133;28;20047;-76
2022/10/09 13:44:18;;;;;;;0.10;0.10;;;;;;;16.63;88.72;102010.41;10599995;27;20537;-75
2022/10/09 13:49:19;;;;;;;0.10;0.10;;;;;;;16.98;93.65;102002.38;10599501;28;20098;-75
2022/10/09 13:54:21;;;;;;;0.00;0.00;;;;;;;16.98;93.20;101984.16;10588658;28;20082;-75
2022/10/09 13:59:23;;;;;;;0.10;0.10;;;;;;;17.07;82.87;101971.28;10558980;28;20115;-75
2022/10/09 14:04:26;;;;;;;0.00;0.00;;;;;;;16.85;80.59;101966.53;10571674;28;20078;-75
2022/10/09 14:09:27;;;;;;;0.32;0.28;;;;;;;17.00;83.21;101953.81;10571611;28;20139;-75
2022/10/09 14:14:29;;;;;;;0.00;0.00;;;;;;;16.95;76.07;101955.44;10589710;28;20042;-75
2022/10/09 14:19:31;;;;;;;0.00;0.00;;;;;;;17.04;80.37;101939.97;10589920;28;20071;-76
2022/10/09 14:24:32;;;;;;;0.00;0.00;;;;;;;17.05;82.65;101931.31;10608285;27;20455;-76
2022/10/09 14:29:36;;;;;;;0.00;0.00;;;;;;;16.92;83.13;101930.25;10613585;27;20149;-76
2022/10/09 14:34:37;;;;;;;0.20;0.00;;;;;;;16.72;85.49;101918.63;10612762;27;20402;-76
2022/10/09 14:39:42;;;;;;;0.00;0.00;;;;;;;16.56;82.75;101925.28;10613650;27;20114;-74
2022/10/09 14:44:43;;;;;;;0.00;0.00;;;;;;;16.64;81.59;101908.97;10630983;27;20114;-76
2022/10/09 14:49:45;;;;;;;0.05;0.05;;;;;;;16.71;86.29;101899.53;10612409;27;20074;-76
2022/10/09 14:54:46;;;;;;;0.00;0.00;;;;;;;16.69;85.93;101885.63;10660218;27;20071;-78
2022/10/09 14:59:49;;;;;;;0.00;0.00;;;;;;;16.46;88.35;101890.41;10602429;27;20411;-77
2022/10/09 15:04:50;;;;;;;0.57;0.20;;;;;;;16.26;89.01;101885.75;10614112;27;20062;-77
2022/10/09 15:09:53;;;;;;;0.85;0.03;;;;;;;16.22;92.11;101873.56;10620214;27;20051;-77
2022/10/09 15:14:55;;;;;;;0.00;0.00;;;;;;;16.27;93.75;101869.31;10604733;27;20482;-77
2022/10/09 15:19:56;;;;;;;0.43;0.30;;;;;;;16.32;94.45;101853.78;10611305;27;20138;-77
2022/10/09 15:24:58;;;;;;;0.20;0.10;;;;;;;16.43;95.27;101856.56;10583674;27;20458;-77
2022/10/09 15:30:00;;;;;;;0.20;0.17;;;;;;;16.20;89.79;101849.25;10594854;27;20062;-77
2022/10/09 15:35:01;;;;;;;2.13;0.25;;;;;;;16.30;87.83;101848.56;10597869;27;20087;-76
2022/10/09 15:40:03;;;;;;;0.10;0.10;;;;;;;16.08;88.13;101839.50;10595998;27;20047;-77
2022/10/09 15:45:05;;;;;;;0.10;0.10;;;;;;;15.92;92.84;101829.66;10624026;27;20067;-77
2022/10/09 15:50:07;;;;;;;0.05;0.00;;;;;;;16.00;90.30;101817.69;10623459;27;20122;-77
2022/10/09 15:55:09;;;;;;;0.22;0.10;;;;;;;15.65;92.47;101817.88;10602937;27;20073;-77
2022/10/09 16:00:11;;;;;;;2.13;1.55;;;;;;;15.58;93.97;101800.44;10623264;27;20041;-77
2022/10/09 16:05:13;;;;;;;0.90;0.20;;;;;;;15.41;99.88;101787.97;10602118;27;20125;-77
2022/10/09 16:10:14;;;;;;;0.08;0.08;;;;;;;15.38;100.00;101783.59;10604651;27;20096;-77
2022/10/09 16:15:16;;;;;;;0.17;0.13;;;;;;;15.13;100.00;101787.41;10601292;27;20126;-77
2022/10/09 16:20:17;;;;;;;0.00;0.00;;;;;;;14.94;100.00;101780.06;10601422;27;20050;-77
2022/10/09 16:25:19;;;;;;;0.00;0.00;;;;;;;14.78;100.00;101782.31;10618140;27;20131;-77
2022/10/09 16:30:21;;;;;;;0.00;0.00;;;;;;;14.66;100.00;101779.44;10601668;27;20035;-77
2022/10/09 16:35:22;;;;;;;0.52;0.15;;;;;;;14.31;100.00;101782.91;10595722;27;20134;-76
2022/10/09 16:40:24;;;;;;;0.00;0.00;;;;;;;14.10;100.00;101771.19;10616661;27;20054;-77
2022/10/09 16:45:46;;;;;;;0.32;0.32;;;;;;;13.95;100.00;101774.28;10617424;27;20043;-76
2022/10/09 16:50:47;;;;;;;0.03;0.03;;;;;;;13.79;100.00;101779.88;10603380;27;20050;-76
2022/10/09 16:55:50;;;;;;;0.00;0.00;;;;;;;13.39;100.00;101781.34;10619104;27;20054;-77
2022/10/09 17:00:59;;;;;;;0.00;0.00;;;;;;;13.17;100.00;101780.72;10620866;27;20057;-76
2022/10/09 17:06:05;;;;;;;0.00;0.00;;;;;;;12.89;100.00;101782.47;10622499;27;20028;-77
2022/10/09 17:11:11;;;;;;;0.15;0.08;;;;;;;12.60;100.00;101782.47;10601565;27;20043;-77
2022/10/09 17:16:15;;;;;;;0.13;0.13;;;;;;;12.30;100.00;101777.16;10620715;27;20772;-77
2022/10/09 17:21:19;;;;;;;0.47;0.03;;;;;;;12.22;100.00;101779.50;10601615;27;20047;-77
2022/10/09 17:26:22;;;;;;;0.00;0.00;;;;;;;12.14;100.00;101775.78;10619934;27;20037;-77
2022/10/09 17:31:25;;;;;;;0.00;0.00;;;;;;;11.97;100.00;101773.50;10603445;27;20071;-77
2022/10/09 17:36:31;;;;;;;0.10;0.00;;;;;;;11.72;100.00;101772.66;10615964;27;20426;-77
2022/10/09 17:41:33;;;;;;;0.00;0.00;;;;;;;11.66;100.00;101782.72;10624115;27;20533;-78
2022/10/09 17:46:34;;;;;;;0.05;0.03;;;;;;;11.17;100.00;101786.97;10601772;28;20368;-78
2022/10/09 17:51:38;;;;;;;0.00;0.00;;;;;;;11.25;100.00;101784.69;10619653;28;20455;-78
2022/10/09 17:56:40;;;;;;;0.50;0.17;;;;;;;11.20;100.00;101786.22;10619962;28;20045;-78
2022/10/09 18:01:42;;;;;;;0.43;0.30;;;;;;;11.24;100.00;101767.47;10620105;28;20078;-78
2022/10/09 18:06:44;;;;;;;0.10;0.10;;;;;;;11.23;100.00;101763.13;10619553;27;20090;-79
2022/10/09 18:11:45;;;;;;;0.88;0.28;;;;;;;11.20;100.00;101761.31;10620370;28;20055;-78
2022/10/09 18:16:47;;;;;;;0.10;0.10;;;;;;;11.16;100.00;101758.56;10620248;28;20085;-77
2022/10/09 18:21:49;;;;;;;0.43;0.22;;;;;;;11.15;100.00;101757.69;10620275;28;20125;-76
2022/10/09 18:26:50;;;;;;;0.10;0.10;;;;;;;10.95;100.00;101759.50;10601078;28;20049;-76
2022/10/09 18:31:54;;;;;;;1.25;0.82;;;;;;;10.86;100.00;101767.78;10636140;27;20039;-77
2022/10/09 18:36:57;;;;;;;0.43;0.13;;;;;;;10.79;100.00;101761.50;10629166;27;20047;-77
2022/10/09 18:42:02;;;;;;;0.10;0.10;;;;;;;10.51;100.00;101766.38;10613299;27;20061;-76
2022/10/09 18:47:10;;;;;;;0.93;0.25;;;;;;;10.23;100.00;101760.97;10616908;27;20043;-76
2022/10/09 18:52:15;;;;;;;0.60;0.45;;;;;;;9.93;100.00;101776.88;10588173;27;20573;-75
2022/10/09 18:57:23;;;;;;;0.10;0.10;;;;;;;9.80;100.00;101780.63;10638446;27;20031;-76
2022/10/09 19:02:25;;;;;;;1.30;0.55;;;;;;;9.83;100.00;101769.56;10637173;27;20047;-76
2022/10/09 19:07:28;;;;;;;0.13;0.10;;;;;;;9.76;100.00;101763.31;10620044;27;20085;-77
2022/10/09 19:12:32;;;;;;;0.90;0.28;;;;;;;9.76;100.00;101755.56;10618841;27;20059;-76
2022/10/09 19:17:35;;;;;;;0.55;0.20;;;;;;;9.65;100.00;101760.25;10601805;27;20444;-76
2022/10/09 19:22:36;;;;;;;1.17;0.40;;;;;;;9.43;100.00;101753.28;10619082;27;20439;-77
2022/10/09 19:27:39;;;;;;;1.75;0.32;;;;;;;9.34;100.00;101760.63;10637059;27;20031;-77
2022/10/09 19:32:41;;;;;;;0.77;0.35;;;;;;;9.15;100.00;101758.91;10612873;27;20447;-76
2022/10/09 19:37:44;;;;;;;0.32;0.30;;;;;;;8.76;100.00;101762.25;10599396;27;20043;-76
2022/10/09 19:42:48;;;;;;;2.85;0.35;;;;;;;8.76;100.00;101758.81;10615985;27;20742;-77
2022/10/09 19:47:55;;;;;;;0.80;0.57;;;;;;;8.63;100.00;101758.25;10618127;27;20043;-76
2022/10/09 19:53:02;;;;;;;0.52;0.30;;;;;;;8.58;100.00;101757.13;10625258;27;20061;-76
2022/10/09 19:58:06;;;;;;;0.10;0.10;;;;;;;8.42;100.00;101755.47;10633510;27;20042;-78
2022/10/09 20:03:11;;;;;;;1.00;0.30;;;;;;;8.56;100.00;101749.34;10616045;27;20140;-78
2022/10/09 20:08:14;;;;;;;1.02;0.95;;;;;;;8.57;100.00;101738.28;10617175;27;20031;-78
2022/10/09 20:13:15;;;;;;;0.80;0.63;;;;;;;8.65;100.00;101735.19;10635279;27;20043;-78
2022/10/09 20:18:17;;;;;;;0.55;0.55;;;;;;;8.91;100.00;101726.13;10615472;27;20047;-78
2022/10/09 20:23:22;;;;;;;0.52;0.50;;;;;;;9.38;100.00;101708.50;10631694;27;20059;-78
2022/10/09 20:28:26;;;;;;;0.00;0.00;;;;;;;9.36;100.00;101697.25;10606360;27;20086;-78
2022/10/09 20:33:28;;;;;;;0.65;0.57;;;;;;;9.50;100.00;101692.72;10625560;27;20039;-78
2022/10/09 20:38:33;;;;;;;0.73;0.32;;;;;;;9.50;100.00;101688.44;10620806;27;20034;-78
2022/10/09 20:43:36;;;;;;;0.10;0.10;;;;;;;9.57;100.00;101688.72;10604866;27;20074;-78
2022/10/09 20:48:39;;;;;;;0.10;0.10;;;;;;;9.50;100.00;101683.28;10615658;27;20095;-78
2022/10/09 20:53:41;;;;;;;0.77;0.40;;;;;;;9.47;100.00;101672.88;10610729;27;20053;-77
2022/10/09 20:58:43;;;;;;;0.43;0.40;;;;;;;9.55;100.00;101670.63;10600381;27;20043;-78
2022/10/09 21:03:44;;;;;;;0.30;0.30;;;;;;;9.67;100.00;101659.97;10618206;27;20369;-78
2022/10/09 21:08:46;;;;;;;6.93;0.52;;;;;;;9.65;100.00;101666.75;10618485;27;20051;-79
2022/10/09 21:13:48;;;;;;;0.10;0.08;;;;;;;9.63;100.00;101652.97;10618703;27;20078;-77
2022/10/09 21:19:02;;;;;;;0.28;0.28;;;;;;;9.61;100.00;101655.44;10612361;27;20049;-77
2022/10/09 21:24:04;;;;;;;0.73;0.52;;;;;;;9.55;100.00;101641.47;10618246;27;20043;-77
2022/10/09 21:29:05;;;;;;;0.57;0.20;;;;;;;9.48;100.00;101638.63;10602313;27;20122;-78
2022/10/09 21:34:07;;;;;;;0.25;0.25;;;;;;;9.64;100.00;101641.84;10600908;27;20134;-77
2022/10/09 21:39:09;;;;;;;0.65;0.47;;;;;;;9.73;100.00;101629.34;10619817;27;20126;-77
2022/10/09 21:44:11;;;;;;;0.08;0.05;;;;;;;9.68;100.00;101628.28;10613266;27;20047;-78
2022/10/09 21:49:24;;;;;;;0.00;0.00;;;;;;;9.68;100.00;101620.56;10617074;28;20053;-78
2022/10/09 21:54:26;;;;;;;0.08;0.08;;;;;;;9.62;100.00;101620.31;10595679;28;20043;-77
2022/10/09 21:59:27;;;;;;;0.20;0.20;;;;;;;9.59;100.00;101618.50;10615758;28;20066;-78
2022/10/09 22:04:29;;;;;;;0.25;0.20;;;;;;;9.59;100.00;101617.59;10598140;27;20035;-77
2022/10/09 22:09:31;;;;;;;0.40;0.35;;;;;;;9.48;100.00;101612.91;10628035;27;20550;-77
2022/10/09 22:14:32;;;;;;;0.20;0.20;;;;;;;9.56;100.00;101604.63;10608079;27;20130;-78
2022/10/09 22:19:34;;;;;;;0.30;0.08;;;;;;;9.43;100.00;101598.97;10614377;27;20413;-77
2022/10/09 22:24:35;;;;;;;0.10;0.10;;;;;;;9.39;100.00;101597.09;10601642;27;20035;-77
2022/10/09 22:29:37;;;;;;;0.22;0.10;;;;;;;9.33;100.00;101591.69;10596580;27;20111;-78
2022/10/09 22:35:04;;;;;;;0.15;0.10;;;;;;;9.24;100.00;101591.31;10621372;27;20432;-77
2022/10/09 22:40:06;;;;;;;0.15;0.15;;;;;;;9.24;100.00;101581.00;10628918;27;20074;-77
2022/10/09 22:45:08;;;;;;;0.10;0.00;;;;;;;9.23;100.00;101577.59;10608589;27;20371;-78
2022/10/09 22:50:09;;;;;;;2.60;0.70;;;;;;;9.11;100.00;101575.38;10606443;27;20053;-78
2022/10/09 22:55:11;;;;;;;0.43;0.22;;;;;;;9.03;100.00;101566.44;10599299;27;20048;-77
2022/10/09 23:00:13;;;;;;;0.40;0.30;;;;;;;8.92;100.00;101562.50;10619639;27;20052;-77
2022/10/09 23:05:15;;;;;;;0.38;0.32;;;;;;;8.78;100.00;101556.78;10599167;27;20055;-77
2022/10/09 23:10:16;;;;;;;0.10;0.10;;;;;;;8.72;100.00;101559.97;10635907;27;20043;-77
2022/10/09 23:15:18;;;;;;;0.75;0.35;;;;;;;8.74;100.00;101558.34;10623161;27;20047;-77
2022/10/09 23:20:20;;;;;;;0.28;0.28;;;;;;;8.65;100.00;101563.06;10611020;27;20498;-77
2022/10/09 23:25:21;;;;;;;0.68;0.13;;;;;;;8.57;100.00;101561.03;10600749;27;20486;-77
2022/10/09 23:30:23;;;;;;;0.00;0.00;;;;;;;8.57;100.00;101555.00;10624178;27;20043;-77